sensor_id;sensor_type;location;lat;lon;timestamp;temperature;humidity
52609;DHT22;38503;48.544;12.142;2023-03-23T00:02:23;9.60;1.00
52609;DHT22;38503;48.544;12.142;2023-03-23T00:04:49;9.50;1.00
52609;DHT22;38503;48.544;12.142;2023-03-23T00:07:16;9.60;1.00
52609;DHT22;38503;48.544;12.142;2023-03-23T00:09:50;9.50;1.00
52609;DHT22;38503;48.544;12.142;2023-03-23T00:12:30;9.50;1.00
52609;DHT22;38503;48.544;12.142;2023-03-23T00:15:00;9.60;1.00
52609;DHT22;38503;48.544;12.142;2023-03-23T00:17:27;9.60;1.00
52609;DHT22;38503;48.544;12.142;2023-03-23T00:19:53;9.50;1.00
52609;DHT22;38503;48.544;12.142;2023-03-23T00:22:19;9.50;1.00
52609;DHT22;38503;48.544;12.142;2023-03-23T00:24:47;9.50;1.00
52609;DHT22;38503;48.544;12.142;2023-03-23T00:27:16;9.50;1.00
52609;DHT22;38503;48.544;12.142;2023-03-23T00:29:42;9.40;1.00
52609;DHT22;38503;48.544;12.142;2023-03-23T00:32:12;9.40;1.00
52609;DHT22;38503;48.544;12.142;2023-03-23T00:34:41;9.40;1.00
52609;DHT22;38503;48.544;12.142;2023-03-23T00:37:09;9.30;1.00
52609;DHT22;38503;48.544;12.142;2023-03-23T00:39:35;9.30;1.00
52609;DHT22;38503;48.544;12.142;2023-03-23T00:42:02;9.30;1.00
52609;DHT22;38503;48.544;12.142;2023-03-23T00:44:30;9.30;1.00
52609;DHT22;38503;48.544;12.142;2023-03-23T00:46:56;9.30;1.00
52609;DHT22;38503;48.544;12.142;2023-03-23T00:49:23;9.40;1.00
52609;DHT22;38503;48.544;12.142;2023-03-23T00:51:53;9.40;1.00
52609;DHT22;38503;48.544;12.142;2023-03-23T00:54:20;9.30;1.00
52609;DHT22;38503;48.544;12.142;2023-03-23T00:56:46;9.30;1.00
52609;DHT22;38503;48.544;12.142;2023-03-23T00:59:12;9.30;1.00
52609;DHT22;38503;48.544;12.142;2023-03-23T01:01:38;9.30;1.00
52609;DHT22;38503;48.544;12.142;2023-03-23T01:04:04;9.30;1.00
52609;DHT22;38503;48.544;12.142;2023-03-23T01:06:32;9.30;1.00
52609;DHT22;38503;48.544;12.142;2023-03-23T01:09:01;9.30;1.00
52609;DHT22;38503;48.544;12.142;2023-03-23T01:11:29;9.20;1.00
52609;DHT22;38503;48.544;12.142;2023-03-23T01:13:55;9.20;1.00
52609;DHT22;38503;48.544;12.142;2023-03-23T01:16:21;9.20;1.00
52609;DHT22;38503;48.544;12.142;2023-03-23T01:18:47;9.20;1.00
52609;DHT22;38503;48.544;12.142;2023-03-23T01:21:15;9.20;1.00
52609;DHT22;38503;48.544;12.142;2023-03-23T01:23:42;9.20;1.00
52609;DHT22;38503;48.544;12.142;2023-03-23T01:26:16;9.20;1.00
52609;DHT22;38503;48.544;12.142;2023-03-23T01:28:45;9.10;1.00
52609;DHT22;38503;48.544;12.142;2023-03-23T01:31:14;9.10;1.00
52609;DHT22;38503;48.544;12.142;2023-03-23T01:33:40;9.20;1.00
52609;DHT22;38503;48.544;12.142;2023-03-23T01:36:21;9.20;1.00
52609;DHT22;38503;48.544;12.142;2023-03-23T01:38:49;9.10;1.00
52609;DHT22;38503;48.544;12.142;2023-03-23T01:41:16;9.10;1.00
52609;DHT22;38503;48.544;12.142;2023-03-23T01:46:33;9.00;1.00
52609;DHT22;38503;48.544;12.142;2023-03-23T01:49:36;8.90;1.00
52609;DHT22;38503;48.544;12.142;2023-03-23T01:52:02;9.00;1.00
52609;DHT22;38503;48.544;12.142;2023-03-23T01:54:28;8.90;1.00
52609;DHT22;38503;48.544;12.142;2023-03-23T01:56:57;8.90;1.00
52609;DHT22;38503;48.544;12.142;2023-03-23T01:59:26;8.90;1.00
52609;DHT22;38503;48.544;12.142;2023-03-23T02:01:54;8.80;1.00
52609;DHT22;38503;48.544;12.142;2023-03-23T02:04:23;8.80;1.00
52609;DHT22;38503;48.544;12.142;2023-03-23T02:06:51;8.80;1.00
52609;DHT22;38503;48.544;12.142;2023-03-23T02:09:18;8.80;1.00
52609;DHT22;38503;48.544;12.142;2023-03-23T02:11:45;8.80;1.00
52609;DHT22;38503;48.544;12.142;2023-03-23T02:14:12;8.70;1.00
52609;DHT22;38503;48.544;12.142;2023-03-23T02:16:48;8.70;1.20
52609;DHT22;38503;48.544;12.142;2023-03-23T02:23:14;8.60;4.30
52609;DHT22;38503;48.544;12.142;2023-03-23T02:34:05;8.60;6.60
52609;DHT22;38503;48.544;12.142;2023-03-23T02:36:42;8.50;8.10
52609;DHT22;38503;48.544;12.142;2023-03-23T02:39:32;8.50;8.00
52609;DHT22;38503;48.544;12.142;2023-03-23T02:42:02;8.50;8.10
52609;DHT22;38503;48.544;12.142;2023-03-23T02:44:31;8.50;8.30
52609;DHT22;38503;48.544;12.142;2023-03-23T02:47:00;8.40;9.50
52609;DHT22;38503;48.544;12.142;2023-03-23T02:49:29;8.40;9.40
52609;DHT22;38503;48.544;12.142;2023-03-23T02:51:59;8.40;9.90
52609;DHT22;38503;48.544;12.142;2023-03-23T02:54:26;8.50;10.00
52609;DHT22;38503;48.544;12.142;2023-03-23T02:56:53;8.50;9.40
52609;DHT22;38503;48.544;12.142;2023-03-23T02:59:20;8.50;8.20
52609;DHT22;38503;48.544;12.142;2023-03-23T03:01:52;8.50;7.80
52609;DHT22;38503;48.544;12.142;2023-03-23T03:04:23;8.50;5.80
52609;DHT22;38503;48.544;12.142;2023-03-23T03:09:42;8.50;5.20
52609;DHT22;38503;48.544;12.142;2023-03-23T03:12:44;8.50;5.20
52609;DHT22;38503;48.544;12.142;2023-03-23T03:15:41;8.50;5.50
52609;DHT22;38503;48.544;12.142;2023-03-23T03:18:13;8.40;6.90
52609;DHT22;38503;48.544;12.142;2023-03-23T03:20:54;8.40;7.00
52609;DHT22;38503;48.544;12.142;2023-03-23T03:23:22;8.50;4.80
52609;DHT22;38503;48.544;12.142;2023-03-23T03:25:50;8.50;5.00
52609;DHT22;38503;48.544;12.142;2023-03-23T03:28:18;8.40;6.00
52609;DHT22;38503;48.544;12.142;2023-03-23T03:30:53;8.40;7.20
52609;DHT22;38503;48.544;12.142;2023-03-23T03:33:21;8.40;8.00
52609;DHT22;38503;48.544;12.142;2023-03-23T03:35:53;8.30;8.30
52609;DHT22;38503;48.544;12.142;2023-03-23T03:38:20;8.40;8.90
52609;DHT22;38503;48.544;12.142;2023-03-23T03:40:46;8.40;7.70
52609;DHT22;38503;48.544;12.142;2023-03-23T03:43:11;8.40;6.80
52609;DHT22;38503;48.544;12.142;2023-03-23T03:45:37;8.40;7.70
52609;DHT22;38503;48.544;12.142;2023-03-23T03:48:03;8.50;4.40
52609;DHT22;38503;48.544;12.142;2023-03-23T03:50:29;8.60;3.00
52609;DHT22;38503;48.544;12.142;2023-03-23T03:52:55;8.50;1.00
52609;DHT22;38503;48.544;12.142;2023-03-23T03:55:21;8.50;1.00
52609;DHT22;38503;48.544;12.142;2023-03-23T03:57:47;8.60;3.20
52609;DHT22;38503;48.544;12.142;2023-03-23T04:00:14;8.60;1.80
52609;DHT22;38503;48.544;12.142;2023-03-23T04:02:42;8.70;1.40
52609;DHT22;38503;48.544;12.142;2023-03-23T04:05:08;8.60;1.00
52609;DHT22;38503;48.544;12.142;2023-03-23T04:07:35;8.60;1.00
52609;DHT22;38503;48.544;12.142;2023-03-23T04:10:05;8.60;1.00
52609;DHT22;38503;48.544;12.142;2023-03-23T04:12:32;8.60;1.00
52609;DHT22;38503;48.544;12.142;2023-03-23T04:14:58;8.60;1.00
52609;DHT22;38503;48.544;12.142;2023-03-23T04:17:24;8.70;1.00
52609;DHT22;38503;48.544;12.142;2023-03-23T04:19:54;8.70;1.00
52609;DHT22;38503;48.544;12.142;2023-03-23T04:22:23;8.70;1.00
52609;DHT22;38503;48.544;12.142;2023-03-23T04:24:56;8.70;1.00
52609;DHT22;38503;48.544;12.142;2023-03-23T04:27:25;8.70;1.00
52609;DHT22;38503;48.544;12.142;2023-03-23T04:29:56;8.60;1.00
52609;DHT22;38503;48.544;12.142;2023-03-23T04:32:24;8.60;1.60
52609;DHT22;38503;48.544;12.142;2023-03-23T04:34:55;8.60;1.00
52609;DHT22;38503;48.544;12.142;2023-03-23T04:37:22;8.60;1.00
52609;DHT22;38503;48.544;12.142;2023-03-23T04:39:52;8.70;1.00
52609;DHT22;38503;48.544;12.142;2023-03-23T04:42:30;8.60;1.00
52609;DHT22;38503;48.544;12.142;2023-03-23T04:44:59;8.60;2.10
52609;DHT22;38503;48.544;12.142;2023-03-23T04:47:26;8.60;4.60
52609;DHT22;38503;48.544;12.142;2023-03-23T04:49:58;8.50;4.20
52609;DHT22;38503;48.544;12.142;2023-03-23T04:52:25;8.50;5.30
52609;DHT22;38503;48.544;12.142;2023-03-23T04:54:51;8.50;6.00
52609;DHT22;38503;48.544;12.142;2023-03-23T04:57:18;8.60;4.80
52609;DHT22;38503;48.544;12.142;2023-03-23T04:59:43;8.60;4.90
52609;DHT22;38503;48.544;12.142;2023-03-23T05:02:10;8.60;4.60
52609;DHT22;38503;48.544;12.142;2023-03-23T05:04:36;8.60;4.90
52609;DHT22;38503;48.544;12.142;2023-03-23T05:07:03;8.70;4.60
52609;DHT22;38503;48.544;12.142;2023-03-23T05:09:29;8.70;6.90
52609;DHT22;38503;48.544;12.142;2023-03-23T05:11:55;8.70;4.40
52609;DHT22;38503;48.544;12.142;2023-03-23T05:14:21;8.70;5.10
52609;DHT22;38503;48.544;12.142;2023-03-23T05:16:47;8.70;5.70
52609;DHT22;38503;48.544;12.142;2023-03-23T05:19:14;8.70;6.30
52609;DHT22;38503;48.544;12.142;2023-03-23T05:21:40;8.70;6.70
52609;DHT22;38503;48.544;12.142;2023-03-23T05:24:06;8.70;7.70
52609;DHT22;38503;48.544;12.142;2023-03-23T05:26:32;8.70;7.40
52609;DHT22;38503;48.544;12.142;2023-03-23T05:28:58;8.70;8.00
52609;DHT22;38503;48.544;12.142;2023-03-23T05:31:24;8.60;10.10
52609;DHT22;38503;48.544;12.142;2023-03-23T05:33:50;8.70;10.00
52609;DHT22;38503;48.544;12.142;2023-03-23T05:36:16;8.80;9.00
52609;DHT22;38503;48.544;12.142;2023-03-23T05:38:42;8.80;10.30
52609;DHT22;38503;48.544;12.142;2023-03-23T05:41:19;8.80;9.70
52609;DHT22;38503;48.544;12.142;2023-03-23T05:43:46;8.80;11.80
52609;DHT22;38503;48.544;12.142;2023-03-23T05:46:12;8.90;11.60
52609;DHT22;38503;48.544;12.142;2023-03-23T05:48:37;8.80;12.30
52609;DHT22;38503;48.544;12.142;2023-03-23T05:51:04;8.80;13.60
52609;DHT22;38503;48.544;12.142;2023-03-23T05:53:29;8.90;13.50
52609;DHT22;38503;48.544;12.142;2023-03-23T05:56:02;9.00;13.00
52609;DHT22;38503;48.544;12.142;2023-03-23T05:58:29;9.00;12.70
52609;DHT22;38503;48.544;12.142;2023-03-23T06:00:55;9.00;12.90
52609;DHT22;38503;48.544;12.142;2023-03-23T06:03:21;9.10;13.00
52609;DHT22;38503;48.544;12.142;2023-03-23T06:05:48;9.10;12.90
52609;DHT22;38503;48.544;12.142;2023-03-23T06:08:14;9.10;13.60
52609;DHT22;38503;48.544;12.142;2023-03-23T06:10:39;9.20;12.80
52609;DHT22;38503;48.544;12.142;2023-03-23T06:13:05;9.20;10.40
52609;DHT22;38503;48.544;12.142;2023-03-23T06:15:31;9.40;4.70
52609;DHT22;38503;48.544;12.142;2023-03-23T06:18:04;9.60;1.90
52609;DHT22;38503;48.544;12.142;2023-03-23T06:20:31;9.80;1.00
52609;DHT22;38503;48.544;12.142;2023-03-23T06:22:58;9.90;1.00
52609;DHT22;38503;48.544;12.142;2023-03-23T06:25:24;10.00;1.00
52609;DHT22;38503;48.544;12.142;2023-03-23T06:27:50;10.10;1.00
52609;DHT22;38503;48.544;12.142;2023-03-23T06:30:17;10.10;1.00
52609;DHT22;38503;48.544;12.142;2023-03-23T06:32:43;10.20;1.00
52609;DHT22;38503;48.544;12.142;2023-03-23T06:35:12;10.30;1.00
52609;DHT22;38503;48.544;12.142;2023-03-23T06:37:38;10.30;1.00
52609;DHT22;38503;48.544;12.142;2023-03-23T06:40:04;10.40;1.00
52609;DHT22;38503;48.544;12.142;2023-03-23T06:42:34;10.40;1.00
52609;DHT22;38503;48.544;12.142;2023-03-23T06:44:59;10.60;1.00
52609;DHT22;38503;48.544;12.142;2023-03-23T06:47:27;10.80;1.00
52609;DHT22;38503;48.544;12.142;2023-03-23T06:49:55;11.00;1.00
52609;DHT22;38503;48.544;12.142;2023-03-23T06:52:22;11.30;1.00
52609;DHT22;38503;48.544;12.142;2023-03-23T06:54:49;11.60;1.00
52609;DHT22;38503;48.544;12.142;2023-03-23T06:57:15;11.80;1.00
52609;DHT22;38503;48.544;12.142;2023-03-23T06:59:42;12.10;1.00
52609;DHT22;38503;48.544;12.142;2023-03-23T07:02:13;12.60;1.00
52609;DHT22;38503;48.544;12.142;2023-03-23T07:04:41;13.00;1.00
52609;DHT22;38503;48.544;12.142;2023-03-23T07:07:09;13.40;1.00
52609;DHT22;38503;48.544;12.142;2023-03-23T07:09:36;13.70;1.00
52609;DHT22;38503;48.544;12.142;2023-03-23T07:12:02;13.60;99.90
52609;DHT22;38503;48.544;12.142;2023-03-23T07:14:29;13.50;1.00
52609;DHT22;38503;48.544;12.142;2023-03-23T07:16:54;13.30;1.00
52609;DHT22;38503;48.544;12.142;2023-03-23T07:19:20;13.00;1.00
52609;DHT22;38503;48.544;12.142;2023-03-23T07:21:46;12.80;1.00
52609;DHT22;38503;48.544;12.142;2023-03-23T07:24:13;12.70;1.00
52609;DHT22;38503;48.544;12.142;2023-03-23T07:26:42;12.50;1.00
52609;DHT22;38503;48.544;12.142;2023-03-23T07:29:08;12.60;1.00
52609;DHT22;38503;48.544;12.142;2023-03-23T07:31:35;12.70;1.00
52609;DHT22;38503;48.544;12.142;2023-03-23T07:34:01;12.40;1.00
52609;DHT22;38503;48.544;12.142;2023-03-23T07:36:28;12.50;1.00
52609;DHT22;38503;48.544;12.142;2023-03-23T07:38:54;12.50;1.00
52609;DHT22;38503;48.544;12.142;2023-03-23T07:41:20;12.60;1.00
52609;DHT22;38503;48.544;12.142;2023-03-23T07:43:46;12.70;1.00
52609;DHT22;38503;48.544;12.142;2023-03-23T07:46:13;12.80;1.00
52609;DHT22;38503;48.544;12.142;2023-03-23T07:48:39;12.80;1.00
52609;DHT22;38503;48.544;12.142;2023-03-23T07:51:06;12.90;1.00
52609;DHT22;38503;48.544;12.142;2023-03-23T07:53:33;12.90;1.00
52609;DHT22;38503;48.544;12.142;2023-03-23T07:55:59;13.10;1.00
52609;DHT22;38503;48.544;12.142;2023-03-23T07:58:26;13.30;1.00
52609;DHT22;38503;48.544;12.142;2023-03-23T08:00:52;13.20;1.00
52609;DHT22;38503;48.544;12.142;2023-03-23T08:03:18;13.20;1.00
52609;DHT22;38503;48.544;12.142;2023-03-23T08:05:44;13.30;1.00
52609;DHT22;38503;48.544;12.142;2023-03-23T08:08:10;14.10;1.00
52609;DHT22;38503;48.544;12.142;2023-03-23T08:10:36;15.20;99.90
52609;DHT22;38503;48.544;12.142;2023-03-23T08:13:03;16.80;99.90
52609;DHT22;38503;48.544;12.142;2023-03-23T08:15:29;17.90;2.30
52609;DHT22;38503;48.544;12.142;2023-03-23T08:17:54;18.30;1.00
52609;DHT22;38503;48.544;12.142;2023-03-23T08:20:21;18.10;1.00
52609;DHT22;38503;48.544;12.142;2023-03-23T08:22:55;18.00;1.00
52609;DHT22;38503;48.544;12.142;2023-03-23T08:25:21;17.50;1.00
52609;DHT22;38503;48.544;12.142;2023-03-23T08:27:47;16.90;99.90
52609;DHT22;38503;48.544;12.142;2023-03-23T08:30:20;16.40;82.80
52609;DHT22;38503;48.544;12.142;2023-03-23T08:32:46;16.10;1.00
52609;DHT22;38503;48.544;12.142;2023-03-23T08:35:13;16.00;1.00
52609;DHT22;38503;48.544;12.142;2023-03-23T08:37:39;15.90;1.00
52609;DHT22;38503;48.544;12.142;2023-03-23T08:40:08;16.00;1.00
52609;DHT22;38503;48.544;12.142;2023-03-23T08:42:38;15.80;15.00
52609;DHT22;38503;48.544;12.142;2023-03-23T08:45:09;16.00;1.00
52609;DHT22;38503;48.544;12.142;2023-03-23T08:47:35;16.10;1.00
52609;DHT22;38503;48.544;12.142;2023-03-23T08:50:02;16.20;1.00
52609;DHT22;38503;48.544;12.142;2023-03-23T08:52:29;16.20;1.00
52609;DHT22;38503;48.544;12.142;2023-03-23T08:54:55;16.20;1.00
52609;DHT22;38503;48.544;12.142;2023-03-23T08:57:23;16.40;1.00
52609;DHT22;38503;48.544;12.142;2023-03-23T08:59:49;16.60;1.00
52609;DHT22;38503;48.544;12.142;2023-03-23T09:02:15;16.50;99.90
52609;DHT22;38503;48.544;12.142;2023-03-23T09:04:42;16.30;1.00
52609;DHT22;38503;48.544;12.142;2023-03-23T09:07:11;16.30;1.00
52609;DHT22;38503;48.544;12.142;2023-03-23T09:09:40;16.40;1.00
52609;DHT22;38503;48.544;12.142;2023-03-23T09:12:08;16.70;99.90
52609;DHT22;38503;48.544;12.142;2023-03-23T09:14:40;17.00;99.90
52609;DHT22;38503;48.544;12.142;2023-03-23T09:17:06;17.20;99.90
52609;DHT22;38503;48.544;12.142;2023-03-23T09:19:33;17.50;1.00
52609;DHT22;38503;48.544;12.142;2023-03-23T09:21:59;17.80;1.00
52609;DHT22;38503;48.544;12.142;2023-03-23T09:24:26;17.90;90.50
52609;DHT22;38503;48.544;12.142;2023-03-23T09:26:52;18.20;1.00
52609;DHT22;38503;48.544;12.142;2023-03-23T09:29:19;18.50;1.00
52609;DHT22;38503;48.544;12.142;2023-03-23T09:31:46;18.80;93.20
52609;DHT22;38503;48.544;12.142;2023-03-23T09:34:15;18.90;1.00
52609;DHT22;38503;48.544;12.142;2023-03-23T09:36:43;19.50;99.90
52609;DHT22;38503;48.544;12.142;2023-03-23T09:39:09;19.80;20.70
52609;DHT22;38503;48.544;12.142;2023-03-23T09:41:57;20.10;91.50
52609;DHT22;38503;48.544;12.142;2023-03-23T09:50:23;19.40;89.50
52609;DHT22;38503;48.544;12.142;2023-03-23T09:52:58;19.30;88.50
52609;DHT22;38503;48.544;12.142;2023-03-23T09:55:24;19.20;87.10
52609;DHT22;38503;48.544;12.142;2023-03-23T09:58:10;19.10;85.90
52609;DHT22;38503;48.544;12.142;2023-03-23T10:01:06;19.50;85.20
52609;DHT22;38503;48.544;12.142;2023-03-23T10:03:43;20.00;83.40
52609;DHT22;38503;48.544;12.142;2023-03-23T10:06:11;21.00;82.10
52609;DHT22;38503;48.544;12.142;2023-03-23T10:08:43;21.20;80.10
52609;DHT22;38503;48.544;12.142;2023-03-23T10:17:03;21.00;78.50
52609;DHT22;38503;48.544;12.142;2023-03-23T10:22:39;21.30;76.10
52609;DHT22;38503;48.544;12.142;2023-03-23T10:27:43;21.30;75.00
52609;DHT22;38503;48.544;12.142;2023-03-23T10:30:24;20.10;75.10
52609;DHT22;38503;48.544;12.142;2023-03-23T10:32:56;20.30;76.60
52609;DHT22;38503;48.544;12.142;2023-03-23T10:35:33;20.50;76.40
52609;DHT22;38503;48.544;12.142;2023-03-23T10:38:23;20.60;76.20
52609;DHT22;38503;48.544;12.142;2023-03-23T10:41:09;21.60;75.20
52609;DHT22;38503;48.544;12.142;2023-03-23T10:43:40;21.50;73.20
52609;DHT22;38503;48.544;12.142;2023-03-23T10:46:46;20.90;72.80
52609;DHT22;38503;48.544;12.142;2023-03-23T10:49:27;20.80;74.50
52609;DHT22;38503;48.544;12.142;2023-03-23T10:52:24;20.60;75.20
52609;DHT22;38503;48.544;12.142;2023-03-23T10:55:16;20.30;74.50
52609;DHT22;38503;48.544;12.142;2023-03-23T10:57:57;19.80;75.30
52609;DHT22;38503;48.544;12.142;2023-03-23T11:00:26;19.60;75.40
52609;DHT22;38503;48.544;12.142;2023-03-23T11:03:22;19.90;76.40
52609;DHT22;38503;48.544;12.142;2023-03-23T11:05:51;19.80;75.90
52609;DHT22;38503;48.544;12.142;2023-03-23T11:08:20;19.60;76.80
52609;DHT22;38503;48.544;12.142;2023-03-23T11:10:53;19.50;76.70
52609;DHT22;38503;48.544;12.142;2023-03-23T11:13:26;19.40;76.90
52609;DHT22;38503;48.544;12.142;2023-03-23T11:15:53;19.40;77.70
52609;DHT22;38503;48.544;12.142;2023-03-23T11:18:25;19.40;77.20
52609;DHT22;38503;48.544;12.142;2023-03-23T11:20:57;19.40;77.60
52609;DHT22;38503;48.544;12.142;2023-03-23T11:23:28;19.70;77.30
52609;DHT22;38503;48.544;12.142;2023-03-23T11:25:58;19.70;77.10
52609;DHT22;38503;48.544;12.142;2023-03-23T11:28:31;19.70;77.50
52609;DHT22;38503;48.544;12.142;2023-03-23T11:31:00;19.90;77.50
52609;DHT22;38503;48.544;12.142;2023-03-23T11:33:52;19.40;76.80
52609;DHT22;38503;48.544;12.142;2023-03-23T11:36:19;19.40;76.90
52609;DHT22;38503;48.544;12.142;2023-03-23T11:38:45;19.30;77.00
52609;DHT22;38503;48.544;12.142;2023-03-23T11:41:16;19.50;77.90
52609;DHT22;38503;48.544;12.142;2023-03-23T11:43:45;20.00;77.50
52609;DHT22;38503;48.544;12.142;2023-03-23T11:46:21;20.00;77.70
52609;DHT22;38503;48.544;12.142;2023-03-23T11:49:01;19.90;77.10
52609;DHT22;38503;48.544;12.142;2023-03-23T11:52:41;20.00;77.40
52609;DHT22;38503;48.544;12.142;2023-03-23T11:54:54;20.00;77.30
52609;DHT22;38503;48.544;12.142;2023-03-23T11:57:22;19.80;77.40
52609;DHT22;38503;48.544;12.142;2023-03-23T11:59:49;19.90;77.50
52609;DHT22;38503;48.544;12.142;2023-03-23T12:02:36;20.00;77.60
52609;DHT22;38503;48.544;12.142;2023-03-23T12:13:18;19.90;76.50
52609;DHT22;38503;48.544;12.142;2023-03-23T12:18:38;20.70;75.40
52609;DHT22;38503;48.544;12.142;2023-03-23T12:41:20;20.20;74.50
52609;DHT22;38503;48.544;12.142;2023-03-23T12:49:20;19.60;74.70
52609;DHT22;38503;48.544;12.142;2023-03-23T12:57:18;19.40;75.80
52609;DHT22;38503;48.544;12.142;2023-03-23T12:59:53;19.20;74.90
52609;DHT22;38503;48.544;12.142;2023-03-23T13:03:08;19.50;75.60
52609;DHT22;38503;48.544;12.142;2023-03-23T13:08:17;19.90;74.90
52609;DHT22;38503;48.544;12.142;2023-03-23T13:10:47;19.70;74.70
52609;DHT22;38503;48.544;12.142;2023-03-23T13:13:17;19.60;75.00
52609;DHT22;38503;48.544;12.142;2023-03-23T13:20:54;19.90;75.70
52609;DHT22;38503;48.544;12.142;2023-03-23T13:23:38;19.80;74.60
52609;DHT22;38503;48.544;12.142;2023-03-23T13:26:16;19.60;76.10
52609;DHT22;38503;48.544;12.142;2023-03-23T13:28:59;19.80;75.60
52609;DHT22;38503;48.544;12.142;2023-03-23T13:31:36;19.90;75.60
52609;DHT22;38503;48.544;12.142;2023-03-23T13:37:05;19.60;75.90
52609;DHT22;38503;48.544;12.142;2023-03-23T13:39:47;19.70;76.30
52609;DHT22;38503;48.544;12.142;2023-03-23T13:50:03;19.60;76.80
52609;DHT22;38503;48.544;12.142;2023-03-23T13:58:10;19.20;76.60
52609;DHT22;38503;48.544;12.142;2023-03-23T14:00:50;19.20;1.00
52609;DHT22;38503;48.544;12.142;2023-03-23T14:03:35;19.30;1.00
52609;DHT22;38503;48.544;12.142;2023-03-23T14:06:12;19.10;1.00
52609;DHT22;38503;48.544;12.142;2023-03-23T14:08:43;19.10;1.00
52609;DHT22;38503;48.544;12.142;2023-03-23T14:11:11;19.10;1.00
52609;DHT22;38503;48.544;12.142;2023-03-23T14:16:24;18.90;1.00
52609;DHT22;38503;48.544;12.142;2023-03-23T14:19:00;18.70;20.80
52609;DHT22;38503;48.544;12.142;2023-03-23T14:21:40;18.50;13.90
52609;DHT22;38503;48.544;12.142;2023-03-23T14:24:29;18.50;48.90
52609;DHT22;38503;48.544;12.142;2023-03-23T14:29:31;18.50;97.90
52609;DHT22;38503;48.544;12.142;2023-03-23T14:31:58;18.40;89.10
52609;DHT22;38503;48.544;12.142;2023-03-23T14:34:26;18.20;99.90
52609;DHT22;38503;48.544;12.142;2023-03-23T14:36:54;18.30;99.90
52609;DHT22;38503;48.544;12.142;2023-03-23T14:39:31;18.30;1.00
52609;DHT22;38503;48.544;12.142;2023-03-23T14:42:15;18.60;83.20
52609;DHT22;38503;48.544;12.142;2023-03-23T14:44:47;18.80;1.00
52609;DHT22;38503;48.544;12.142;2023-03-23T14:47:26;19.00;99.90
52609;DHT22;38503;48.544;12.142;2023-03-23T14:49:55;18.80;99.90
52609;DHT22;38503;48.544;12.142;2023-03-23T14:52:23;18.80;99.90
52609;DHT22;38503;48.544;12.142;2023-03-23T14:54:50;18.80;99.90
52609;DHT22;38503;48.544;12.142;2023-03-23T14:57:33;18.90;99.90
52609;DHT22;38503;48.544;12.142;2023-03-23T14:59:59;18.70;99.90
52609;DHT22;38503;48.544;12.142;2023-03-23T15:02:29;18.70;99.90
52609;DHT22;38503;48.544;12.142;2023-03-23T15:05:00;18.60;99.90
52609;DHT22;38503;48.544;12.142;2023-03-23T15:07:32;18.50;99.90
52609;DHT22;38503;48.544;12.142;2023-03-23T15:09:59;18.50;99.90
52609;DHT22;38503;48.544;12.142;2023-03-23T15:12:28;18.30;99.90
52609;DHT22;38503;48.544;12.142;2023-03-23T15:14:58;18.30;99.90
52609;DHT22;38503;48.544;12.142;2023-03-23T15:17:34;18.20;1.00
52609;DHT22;38503;48.544;12.142;2023-03-23T15:20:08;18.30;1.00
52609;DHT22;38503;48.544;12.142;2023-03-23T15:22:34;18.10;1.00
52609;DHT22;38503;48.544;12.142;2023-03-23T15:27:41;18.00;69.50
52609;DHT22;38503;48.544;12.142;2023-03-23T15:33:15;17.70;99.90
52609;DHT22;38503;48.544;12.142;2023-03-23T15:35:49;17.70;1.00
52609;DHT22;38503;48.544;12.142;2023-03-23T15:38:22;17.80;1.00
52609;DHT22;38503;48.544;12.142;2023-03-23T15:40:50;17.70;1.00
52609;DHT22;38503;48.544;12.142;2023-03-23T15:43:20;17.70;1.00
52609;DHT22;38503;48.544;12.142;2023-03-23T15:45:56;17.70;1.00
52609;DHT22;38503;48.544;12.142;2023-03-23T15:48:26;17.70;97.10
52609;DHT22;38503;48.544;12.142;2023-03-23T15:50:53;17.70;99.90
52609;DHT22;38503;48.544;12.142;2023-03-23T15:53:34;17.70;99.90
52609;DHT22;38503;48.544;12.142;2023-03-23T15:56:02;17.60;1.00
52609;DHT22;38503;48.544;12.142;2023-03-23T15:58:30;17.60;1.00
52609;DHT22;38503;48.544;12.142;2023-03-23T16:00:57;17.50;99.90
52609;DHT22;38503;48.544;12.142;2023-03-23T16:03:28;17.50;99.90
52609;DHT22;38503;48.544;12.142;2023-03-23T16:05:57;17.40;1.00
52609;DHT22;38503;48.544;12.142;2023-03-23T16:08:26;17.40;1.00
52609;DHT22;38503;48.544;12.142;2023-03-23T16:10:53;17.30;1.00
52609;DHT22;38503;48.544;12.142;2023-03-23T16:13:20;17.30;1.00
52609;DHT22;38503;48.544;12.142;2023-03-23T16:15:47;17.20;99.90
52609;DHT22;38503;48.544;12.142;2023-03-23T16:18:19;17.20;99.90
52609;DHT22;38503;48.544;12.142;2023-03-23T16:20:48;17.20;1.00
52609;DHT22;38503;48.544;12.142;2023-03-23T16:23:15;17.20;1.00
52609;DHT22;38503;48.544;12.142;2023-03-23T16:25:42;17.10;1.00
52609;DHT22;38503;48.544;12.142;2023-03-23T16:28:13;17.10;99.90
52609;DHT22;38503;48.544;12.142;2023-03-23T16:30:42;17.00;1.00
52609;DHT22;38503;48.544;12.142;2023-03-23T16:33:09;16.90;1.00
52609;DHT22;38503;48.544;12.142;2023-03-23T16:35:36;16.90;1.00
52609;DHT22;38503;48.544;12.142;2023-03-23T16:38:04;16.90;99.90
52609;DHT22;38503;48.544;12.142;2023-03-23T16:40:35;16.90;99.90
52609;DHT22;38503;48.544;12.142;2023-03-23T16:43:02;16.80;99.90
52609;DHT22;38503;48.544;12.142;2023-03-23T16:45:36;16.80;91.70
52609;DHT22;38503;48.544;12.142;2023-03-23T16:48:07;16.80;99.90
52609;DHT22;38503;48.544;12.142;2023-03-23T16:50:35;16.70;1.00
52609;DHT22;38503;48.544;12.142;2023-03-23T16:53:04;16.70;1.00
52609;DHT22;38503;48.544;12.142;2023-03-23T16:55:31;16.70;99.90
52609;DHT22;38503;48.544;12.142;2023-03-23T16:57:58;16.70;1.00
52609;DHT22;38503;48.544;12.142;2023-03-23T17:00:42;16.70;74.70
52609;DHT22;38503;48.544;12.142;2023-03-23T17:03:09;16.70;99.90
52609;DHT22;38503;48.544;12.142;2023-03-23T17:05:37;16.70;99.90
52609;DHT22;38503;48.544;12.142;2023-03-23T17:08:04;16.60;1.00
52609;DHT22;38503;48.544;12.142;2023-03-23T17:10:31;16.60;1.00
52609;DHT22;38503;48.544;12.142;2023-03-23T17:12:58;16.60;1.00
52609;DHT22;38503;48.544;12.142;2023-03-23T17:15:25;16.50;99.90
52609;DHT22;38503;48.544;12.142;2023-03-23T17:17:52;16.50;99.90
52609;DHT22;38503;48.544;12.142;2023-03-23T17:20:21;16.40;99.90
52609;DHT22;38503;48.544;12.142;2023-03-23T17:22:48;16.40;1.00
52609;DHT22;38503;48.544;12.142;2023-03-23T17:25:16;16.40;1.00
52609;DHT22;38503;48.544;12.142;2023-03-23T17:27:42;16.30;1.00
52609;DHT22;38503;48.544;12.142;2023-03-23T17:30:10;16.30;83.30
52609;DHT22;38503;48.544;12.142;2023-03-23T17:32:37;16.30;1.00
52609;DHT22;38503;48.544;12.142;2023-03-23T17:35:05;16.20;99.90
52609;DHT22;38503;48.544;12.142;2023-03-23T17:37:32;16.20;1.00
52609;DHT22;38503;48.544;12.142;2023-03-23T17:39:59;16.10;99.90
52609;DHT22;38503;48.544;12.142;2023-03-23T17:42:26;16.10;1.00